sensor_id;sensor_type;location;lat;lon;timestamp;temperature;humidity
73547;SHT30;61807;48.384;-4.386;2023-04-06T00:00:23;12.18;77.39
73547;SHT30;61807;48.384;-4.386;2023-04-06T00:02:48;12.20;77.58
73547;SHT30;61807;48.384;-4.386;2023-04-06T00:05:14;12.20;77.54
73547;SHT30;61807;48.384;-4.386;2023-04-06T00:07:40;12.20;77.70
73547;SHT30;61807;48.384;-4.386;2023-04-06T00:10:06;12.18;77.77
73547;SHT30;61807;48.384;-4.386;2023-04-06T00:12:31;12.20;77.85
73547;SHT30;61807;48.384;-4.386;2023-04-06T00:14:57;12.17;77.95
73547;SHT30;61807;48.384;-4.386;2023-04-06T00:17:22;12.20;77.97
73547;SHT30;61807;48.384;-4.386;2023-04-06T00:19:48;12.20;78.19
73547;SHT30;61807;48.384;-4.386;2023-04-06T00:22:13;12.20;78.26
73547;SHT30;61807;48.384;-4.386;2023-04-06T00:24:38;12.20;78.41
73547;SHT30;61807;48.384;-4.386;2023-04-06T00:27:04;12.17;78.48
73547;SHT30;61807;48.384;-4.386;2023-04-06T00:29:29;12.17;78.45
73547;SHT30;61807;48.384;-4.386;2023-04-06T00:31:55;12.15;78.55
73547;SHT30;61807;48.384;-4.386;2023-04-06T00:34:20;12.17;78.62
73547;SHT30;61807;48.384;-4.386;2023-04-06T00:36:46;12.15;78.79
73547;SHT30;61807;48.384;-4.386;2023-04-06T00:39:11;12.18;78.81
73547;SHT30;61807;48.384;-4.386;2023-04-06T00:41:37;12.18;78.72
73547;SHT30;61807;48.384;-4.386;2023-04-06T00:44:02;12.15;78.91
73547;SHT30;61807;48.384;-4.386;2023-04-06T00:46:28;12.18;79.01
73547;SHT30;61807;48.384;-4.386;2023-04-06T00:48:53;12.15;79.01
73547;SHT30;61807;48.384;-4.386;2023-04-06T00:51:19;12.20;79.10
73547;SHT30;61807;48.384;-4.386;2023-04-06T00:53:44;12.18;79.04
73547;SHT30;61807;48.384;-4.386;2023-04-06T00:56:10;12.15;79.29
73547;SHT30;61807;48.384;-4.386;2023-04-06T00:58:35;12.18;79.41
73547;SHT30;61807;48.384;-4.386;2023-04-06T01:01:04;12.15;79.55
73547;SHT30;61807;48.384;-4.386;2023-04-06T01:03:29;12.17;79.53
73547;SHT30;61807;48.384;-4.386;2023-04-06T01:05:54;12.20;79.59
73547;SHT30;61807;48.384;-4.386;2023-04-06T01:08:23;12.22;79.61
73547;SHT30;61807;48.384;-4.386;2023-04-06T01:10:49;12.24;79.59
73547;SHT30;61807;48.384;-4.386;2023-04-06T01:13:15;12.25;79.57
73547;SHT30;61807;48.384;-4.386;2023-04-06T01:15:40;12.26;79.67
73547;SHT30;61807;48.384;-4.386;2023-04-06T01:18:08;12.26;79.78
73547;SHT30;61807;48.384;-4.386;2023-04-06T01:20:35;12.26;79.79
73547;SHT30;61807;48.384;-4.386;2023-04-06T01:23:01;12.29;79.82
73547;SHT30;61807;48.384;-4.386;2023-04-06T01:25:26;12.32;79.81
73547;SHT30;61807;48.384;-4.386;2023-04-06T01:27:52;12.35;79.83
73547;SHT30;61807;48.384;-4.386;2023-04-06T01:30:17;12.36;79.86
73547;SHT30;61807;48.384;-4.386;2023-04-06T01:32:43;12.35;79.94
73547;SHT30;61807;48.384;-4.386;2023-04-06T01:35:08;12.38;80.00
73547;SHT30;61807;48.384;-4.386;2023-04-06T01:37:34;12.35;80.07
73547;SHT30;61807;48.384;-4.386;2023-04-06T01:40:00;12.38;80.06
73547;SHT30;61807;48.384;-4.386;2023-04-06T01:42:25;12.39;80.16
73547;SHT30;61807;48.384;-4.386;2023-04-06T01:44:51;12.43;80.07
73547;SHT30;61807;48.384;-4.386;2023-04-06T01:47:17;12.45;80.12
73547;SHT30;61807;48.384;-4.386;2023-04-06T01:49:42;12.39;80.40
73547;SHT30;61807;48.384;-4.386;2023-04-06T01:52:08;12.43;80.37
73547;SHT30;61807;48.384;-4.386;2023-04-06T01:54:33;12.42;80.40
73547;SHT30;61807;48.384;-4.386;2023-04-06T01:56:58;12.43;80.36
73547;SHT30;61807;48.384;-4.386;2023-04-06T01:59:24;12.43;80.43
73547;SHT30;61807;48.384;-4.386;2023-04-06T02:01:49;12.45;80.44
73547;SHT30;61807;48.384;-4.386;2023-04-06T02:04:15;12.48;80.52
73547;SHT30;61807;48.384;-4.386;2023-04-06T02:06:40;12.50;80.47
73547;SHT30;61807;48.384;-4.386;2023-04-06T02:09:06;12.52;80.41
73547;SHT30;61807;48.384;-4.386;2023-04-06T02:11:31;12.53;80.39
73547;SHT30;61807;48.384;-4.386;2023-04-06T02:13:57;12.55;80.46
73547;SHT30;61807;48.384;-4.386;2023-04-06T02:16:22;12.53;80.57
73547;SHT30;61807;48.384;-4.386;2023-04-06T02:18:49;12.55;80.54
73547;SHT30;61807;48.384;-4.386;2023-04-06T02:21:14;12.57;80.63
73547;SHT30;61807;48.384;-4.386;2023-04-06T02:23:45;12.56;80.62
73547;SHT30;61807;48.384;-4.386;2023-04-06T02:26:10;12.60;80.64
73547;SHT30;61807;48.384;-4.386;2023-04-06T02:28:36;12.62;80.56
73547;SHT30;61807;48.384;-4.386;2023-04-06T02:31:01;12.63;80.53
73547;SHT30;61807;48.384;-4.386;2023-04-06T02:33:27;12.63;80.64
73547;SHT30;61807;48.384;-4.386;2023-04-06T02:35:52;12.63;80.62
73547;SHT30;61807;48.384;-4.386;2023-04-06T02:38:17;12.63;80.72
73547;SHT30;61807;48.384;-4.386;2023-04-06T02:40:43;12.64;80.76
73547;SHT30;61807;48.384;-4.386;2023-04-06T02:43:08;12.64;80.78
73547;SHT30;61807;48.384;-4.386;2023-04-06T02:45:33;12.67;80.76
73547;SHT30;61807;48.384;-4.386;2023-04-06T02:47:59;12.70;80.75
73547;SHT30;61807;48.384;-4.386;2023-04-06T02:50:25;12.67;80.89
73547;SHT30;61807;48.384;-4.386;2023-04-06T02:52:52;12.69;80.89
73547;SHT30;61807;48.384;-4.386;2023-04-06T02:55:17;12.73;80.91
73547;SHT30;61807;48.384;-4.386;2023-04-06T02:57:43;12.72;80.88
73547;SHT30;61807;48.384;-4.386;2023-04-06T03:00:09;12.73;80.93
73547;SHT30;61807;48.384;-4.386;2023-04-06T03:02:34;12.73;81.04
73547;SHT30;61807;48.384;-4.386;2023-04-06T03:05:00;12.73;81.06
73547;SHT30;61807;48.384;-4.386;2023-04-06T03:07:25;12.73;81.05
73547;SHT30;61807;48.384;-4.386;2023-04-06T03:09:51;12.77;81.00
73547;SHT30;61807;48.384;-4.386;2023-04-06T03:12:16;12.80;81.03
73547;SHT30;61807;48.384;-4.386;2023-04-06T03:14:41;12.79;81.04
73547;SHT30;61807;48.384;-4.386;2023-04-06T03:17:07;12.79;81.03
73547;SHT30;61807;48.384;-4.386;2023-04-06T03:19:32;12.77;81.15
73547;SHT30;61807;48.384;-4.386;2023-04-06T03:21:58;12.79;81.20
73547;SHT30;61807;48.384;-4.386;2023-04-06T03:24:23;12.77;81.21
73547;SHT30;61807;48.384;-4.386;2023-04-06T03:26:49;12.77;81.27
73547;SHT30;61807;48.384;-4.386;2023-04-06T03:29:14;12.79;81.28
73547;SHT30;61807;48.384;-4.386;2023-04-06T03:31:40;12.77;81.41
73547;SHT30;61807;48.384;-4.386;2023-04-06T03:34:05;12.81;81.32
73547;SHT30;61807;48.384;-4.386;2023-04-06T03:36:31;12.80;81.26
73547;SHT30;61807;48.384;-4.386;2023-04-06T03:38:56;12.83;81.28
73547;SHT30;61807;48.384;-4.386;2023-04-06T03:41:22;12.86;81.35
73547;SHT30;61807;48.384;-4.386;2023-04-06T03:43:47;12.81;81.44
73547;SHT30;61807;48.384;-4.386;2023-04-06T03:46:13;12.83;81.45
73547;SHT30;61807;48.384;-4.386;2023-04-06T03:48:38;12.87;81.44
73547;SHT30;61807;48.384;-4.386;2023-04-06T03:51:04;12.86;81.51
73547;SHT30;61807;48.384;-4.386;2023-04-06T03:53:29;12.91;81.49
73547;SHT30;61807;48.384;-4.386;2023-04-06T03:55:55;12.94;81.46
73547;SHT30;61807;48.384;-4.386;2023-04-06T03:58:20;12.99;81.50
73547;SHT30;61807;48.384;-4.386;2023-04-06T04:00:46;13.01;81.48
73547;SHT30;61807;48.384;-4.386;2023-04-06T04:03:11;13.03;81.40
73547;SHT30;61807;48.384;-4.386;2023-04-06T04:05:36;13.08;81.45
73547;SHT30;61807;48.384;-4.386;2023-04-06T04:08:02;13.12;81.30
73547;SHT30;61807;48.384;-4.386;2023-04-06T04:10:27;13.10;81.04
73547;SHT30;61807;48.384;-4.386;2023-04-06T04:12:53;13.11;80.91
73547;SHT30;61807;48.384;-4.386;2023-04-06T04:15:18;13.12;80.63
73547;SHT30;61807;48.384;-4.386;2023-04-06T04:17:44;13.12;80.63
73547;SHT30;61807;48.384;-4.386;2023-04-06T04:20:12;13.17;80.41
73547;SHT30;61807;48.384;-4.386;2023-04-06T04:22:37;13.17;80.18
73547;SHT30;61807;48.384;-4.386;2023-04-06T04:25:03;13.21;80.19
73547;SHT30;61807;48.384;-4.386;2023-04-06T04:27:28;13.28;80.02
73547;SHT30;61807;48.384;-4.386;2023-04-06T04:29:54;13.35;79.67
73547;SHT30;61807;48.384;-4.386;2023-04-06T04:32:19;13.38;79.44
73547;SHT30;61807;48.384;-4.386;2023-04-06T04:34:44;13.44;79.30
73547;SHT30;61807;48.384;-4.386;2023-04-06T04:37:10;13.49;79.17
73547;SHT30;61807;48.384;-4.386;2023-04-06T04:39:35;13.55;78.94
73547;SHT30;61807;48.384;-4.386;2023-04-06T04:42:01;13.61;78.80
73547;SHT30;61807;48.384;-4.386;2023-04-06T04:44:26;13.63;78.65
73547;SHT30;61807;48.384;-4.386;2023-04-06T04:46:51;13.65;78.48
73547;SHT30;61807;48.384;-4.386;2023-04-06T04:49:17;13.70;78.36
73547;SHT30;61807;48.384;-4.386;2023-04-06T04:51:42;13.72;78.14
73547;SHT30;61807;48.384;-4.386;2023-04-06T04:54:08;13.78;77.90
73547;SHT30;61807;48.384;-4.386;2023-04-06T04:56:33;13.79;77.71
73547;SHT30;61807;48.384;-4.386;2023-04-06T04:58:59;13.82;77.53
73547;SHT30;61807;48.384;-4.386;2023-04-06T05:01:24;13.80;77.36
73547;SHT30;61807;48.384;-4.386;2023-04-06T05:03:50;13.80;77.23
73547;SHT30;61807;48.384;-4.386;2023-04-06T05:06:15;13.75;76.92
73547;SHT30;61807;48.384;-4.386;2023-04-06T05:08:41;13.66;76.94
73547;SHT30;61807;48.384;-4.386;2023-04-06T05:11:07;13.62;77.29
73547;SHT30;61807;48.384;-4.386;2023-04-06T05:13:32;13.62;77.18
73547;SHT30;61807;48.384;-4.386;2023-04-06T05:15:58;13.61;77.23
73547;SHT30;61807;48.384;-4.386;2023-04-06T05:18:23;13.61;77.12
73547;SHT30;61807;48.384;-4.386;2023-04-06T05:20:48;13.63;77.04
73547;SHT30;61807;48.384;-4.386;2023-04-06T05:23:14;13.59;77.06
73547;SHT30;61807;48.384;-4.386;2023-04-06T05:25:40;13.58;76.96
73547;SHT30;61807;48.384;-4.386;2023-04-06T05:28:06;13.59;76.94
73547;SHT30;61807;48.384;-4.386;2023-04-06T05:30:31;13.57;77.02
73547;SHT30;61807;48.384;-4.386;2023-04-06T05:32:56;13.57;76.84
73547;SHT30;61807;48.384;-4.386;2023-04-06T05:35:22;13.41;76.81
73547;SHT30;61807;48.384;-4.386;2023-04-06T05:37:47;13.34;77.36
73547;SHT30;61807;48.384;-4.386;2023-04-06T05:40:13;13.30;77.46
73547;SHT30;61807;48.384;-4.386;2023-04-06T05:42:39;13.32;77.39
73547;SHT30;61807;48.384;-4.386;2023-04-06T05:45:06;13.32;77.28
73547;SHT30;61807;48.384;-4.386;2023-04-06T05:47:32;13.32;77.36
73547;SHT30;61807;48.384;-4.386;2023-04-06T05:49:57;13.34;77.38
73547;SHT30;61807;48.384;-4.386;2023-04-06T05:52:23;13.34;77.32
73547;SHT30;61807;48.384;-4.386;2023-04-06T05:54:48;13.28;77.22
73547;SHT30;61807;48.384;-4.386;2023-04-06T05:57:14;13.24;77.31
73547;SHT30;61807;48.384;-4.386;2023-04-06T05:59:39;13.20;77.49
73547;SHT30;61807;48.384;-4.386;2023-04-06T06:02:05;13.14;77.52
73547;SHT30;61807;48.384;-4.386;2023-04-06T06:04:30;13.10;77.59
73547;SHT30;61807;48.384;-4.386;2023-04-06T06:06:56;13.06;77.79
73547;SHT30;61807;48.384;-4.386;2023-04-06T06:09:22;13.04;77.86
73547;SHT30;61807;48.384;-4.386;2023-04-06T06:11:48;13.06;77.82
73547;SHT30;61807;48.384;-4.386;2023-04-06T06:14:14;13.04;77.75
73547;SHT30;61807;48.384;-4.386;2023-04-06T06:16:40;12.99;77.62
73547;SHT30;61807;48.384;-4.386;2023-04-06T06:19:05;12.94;77.76
73547;SHT30;61807;48.384;-4.386;2023-04-06T06:21:31;12.94;77.66
73547;SHT30;61807;48.384;-4.386;2023-04-06T06:23:58;12.94;77.65
73547;SHT30;61807;48.384;-4.386;2023-04-06T06:26:23;12.91;77.65
73547;SHT30;61807;48.384;-4.386;2023-04-06T06:28:48;12.94;77.67
73547;SHT30;61807;48.384;-4.386;2023-04-06T06:31:14;12.90;77.62
73547;SHT30;61807;48.384;-4.386;2023-04-06T06:33:39;12.91;77.65
73547;SHT30;61807;48.384;-4.386;2023-04-06T06:36:05;12.91;77.63
73547;SHT30;61807;48.384;-4.386;2023-04-06T06:38:30;12.94;77.62
73547;SHT30;61807;48.384;-4.386;2023-04-06T06:40:56;12.96;77.52
73547;SHT30;61807;48.384;-4.386;2023-04-06T06:43:21;12.96;77.46
73547;SHT30;61807;48.384;-4.386;2023-04-06T06:45:46;12.99;77.43
73547;SHT30;61807;48.384;-4.386;2023-04-06T06:48:12;12.97;77.54
73547;SHT30;61807;48.384;-4.386;2023-04-06T06:50:37;13.03;77.59
73547;SHT30;61807;48.384;-4.386;2023-04-06T06:53:03;13.06;77.62
73547;SHT30;61807;48.384;-4.386;2023-04-06T06:55:28;13.12;77.63
73547;SHT30;61807;48.384;-4.386;2023-04-06T06:57:54;13.15;77.67
73547;SHT30;61807;48.384;-4.386;2023-04-06T07:00:19;13.17;77.65
73547;SHT30;61807;48.384;-4.386;2023-04-06T07:02:48;13.14;77.67
73547;SHT30;61807;48.384;-4.386;2023-04-06T07:05:15;13.10;77.90
73547;SHT30;61807;48.384;-4.386;2023-04-06T07:07:40;13.06;77.92
73547;SHT30;61807;48.384;-4.386;2023-04-06T07:10:06;13.07;78.07
73547;SHT30;61807;48.384;-4.386;2023-04-06T07:12:32;13.07;77.94
73547;SHT30;61807;48.384;-4.386;2023-04-06T07:14:57;13.06;78.04
73547;SHT30;61807;48.384;-4.386;2023-04-06T07:17:22;13.04;78.07
73547;SHT30;61807;48.384;-4.386;2023-04-06T07:19:48;12.99;78.21
73547;SHT30;61807;48.384;-4.386;2023-04-06T07:22:14;12.99;78.40
73547;SHT30;61807;48.384;-4.386;2023-04-06T07:24:39;13.01;78.36
73547;SHT30;61807;48.384;-4.386;2023-04-06T07:27:05;13.03;78.42
73547;SHT30;61807;48.384;-4.386;2023-04-06T07:29:30;13.03;78.28
73547;SHT30;61807;48.384;-4.386;2023-04-06T07:31:56;13.01;78.41
73547;SHT30;61807;48.384;-4.386;2023-04-06T07:34:22;13.01;78.37
73547;SHT30;61807;48.384;-4.386;2023-04-06T07:36:47;13.03;78.39
73547;SHT30;61807;48.384;-4.386;2023-04-06T07:39:12;13.03;78.33
73547;SHT30;61807;48.384;-4.386;2023-04-06T07:41:38;13.01;78.30
73547;SHT30;61807;48.384;-4.386;2023-04-06T07:44:04;13.07;78.42
73547;SHT30;61807;48.384;-4.386;2023-04-06T07:46:30;13.11;78.48
73547;SHT30;61807;48.384;-4.386;2023-04-06T07:48:56;13.20;78.49
73547;SHT30;61807;48.384;-4.386;2023-04-06T07:51:22;13.27;78.51
73547;SHT30;61807;48.384;-4.386;2023-04-06T07:53:47;13.34;78.49
73547;SHT30;61807;48.384;-4.386;2023-04-06T07:56:13;13.44;78.31
73547;SHT30;61807;48.384;-4.386;2023-04-06T07:58:40;13.48;78.30
73547;SHT30;61807;48.384;-4.386;2023-04-06T08:01:06;13.52;78.26
73547;SHT30;61807;48.384;-4.386;2023-04-06T08:03:33;13.55;78.29
73547;SHT30;61807;48.384;-4.386;2023-04-06T08:05:59;13.61;78.30
73547;SHT30;61807;48.384;-4.386;2023-04-06T08:08:24;13.69;78.17
73547;SHT30;61807;48.384;-4.386;2023-04-06T08:10:50;13.73;78.06
73547;SHT30;61807;48.384;-4.386;2023-04-06T08:13:15;13.83;78.08
73547;SHT30;61807;48.384;-4.386;2023-04-06T08:15:41;13.93;77.84
73547;SHT30;61807;48.384;-4.386;2023-04-06T08:18:08;13.96;77.73
73547;SHT30;61807;48.384;-4.386;2023-04-06T08:20:34;14.00;77.57
73547;SHT30;61807;48.384;-4.386;2023-04-06T08:22:59;14.09;77.25
73547;SHT30;61807;48.384;-4.386;2023-04-06T08:25:24;14.16;77.41
73547;SHT30;61807;48.384;-4.386;2023-04-06T08:27:50;14.24;77.40
73547;SHT30;61807;48.384;-4.386;2023-04-06T08:30:15;14.33;77.24
73547;SHT30;61807;48.384;-4.386;2023-04-06T08:32:41;14.37;76.97
73547;SHT30;61807;48.384;-4.386;2023-04-06T08:35:08;14.41;76.89
73547;SHT30;61807;48.384;-4.386;2023-04-06T08:37:33;14.42;76.68
73547;SHT30;61807;48.384;-4.386;2023-04-06T08:39:59;14.49;76.76
73547;SHT30;61807;48.384;-4.386;2023-04-06T08:42:26;14.71;76.75
73547;SHT30;61807;48.384;-4.386;2023-04-06T08:44:52;14.81;76.51
73547;SHT30;61807;48.384;-4.386;2023-04-06T08:47:18;14.89;76.46
73547;SHT30;61807;48.384;-4.386;2023-04-06T08:49:45;14.93;75.84
73547;SHT30;61807;48.384;-4.386;2023-04-06T08:52:11;14.92;75.59
73547;SHT30;61807;48.384;-4.386;2023-04-06T08:54:37;14.93;75.71
73547;SHT30;61807;48.384;-4.386;2023-04-06T08:57:04;14.96;75.47
73547;SHT30;61807;48.384;-4.386;2023-04-06T08:59:32;14.89;75.14
73547;SHT30;61807;48.384;-4.386;2023-04-06T09:01:59;14.86;75.38
73547;SHT30;61807;48.384;-4.386;2023-04-06T09:04:28;14.92;75.51
73547;SHT30;61807;48.384;-4.386;2023-04-06T09:06:53;14.95;75.33
73547;SHT30;61807;48.384;-4.386;2023-04-06T09:09:19;14.96;74.69
73547;SHT30;61807;48.384;-4.386;2023-04-06T09:11:48;14.93;74.85
73547;SHT30;61807;48.384;-4.386;2023-04-06T09:14:15;14.95;74.63
73547;SHT30;61807;48.384;-4.386;2023-04-06T09:16:44;15.12;74.71
73547;SHT30;61807;48.384;-4.386;2023-04-06T09:19:11;15.40;74.52
73547;SHT30;61807;48.384;-4.386;2023-04-06T09:21:37;15.57;74.24
73547;SHT30;61807;48.384;-4.386;2023-04-06T09:24:06;15.87;73.82
73547;SHT30;61807;48.384;-4.386;2023-04-06T09:26:32;16.05;73.32
73547;SHT30;61807;48.384;-4.386;2023-04-06T09:28:59;16.16;73.08
73547;SHT30;61807;48.384;-4.386;2023-04-06T09:31:30;16.15;72.48
73547;SHT30;61807;48.384;-4.386;2023-04-06T09:33:59;16.00;72.30
73547;SHT30;61807;48.384;-4.386;2023-04-06T09:36:35;15.95;72.15
73547;SHT30;61807;48.384;-4.386;2023-04-06T09:39:04;15.90;72.32
73547;SHT30;61807;48.384;-4.386;2023-04-06T09:41:34;15.80;71.87
73547;SHT30;61807;48.384;-4.386;2023-04-06T09:44:04;15.68;71.81
73547;SHT30;61807;48.384;-4.386;2023-04-06T09:46:32;15.54;71.72
73547;SHT30;61807;48.384;-4.386;2023-04-06T09:49:00;15.61;71.97
73547;SHT30;61807;48.384;-4.386;2023-04-06T09:51:30;15.97;72.72
73547;SHT30;61807;48.384;-4.386;2023-04-06T09:53:59;16.30;72.46
73547;SHT30;61807;48.384;-4.386;2023-04-06T09:56:30;16.64;71.92
73547;SHT30;61807;48.384;-4.386;2023-04-06T09:59:02;16.87;71.31
73547;SHT30;61807;48.384;-4.386;2023-04-06T10:01:29;16.99;70.09
73547;SHT30;61807;48.384;-4.386;2023-04-06T10:06:39;16.91;68.58
73547;SHT30;61807;48.384;-4.386;2023-04-06T10:09:07;16.90;68.73
73547;SHT30;61807;48.384;-4.386;2023-04-06T10:11:33;17.00;68.21
73547;SHT30;61807;48.384;-4.386;2023-04-06T10:14:00;17.04;68.26
73547;SHT30;61807;48.384;-4.386;2023-04-06T10:16:26;17.01;67.90
73547;SHT30;61807;48.384;-4.386;2023-04-06T10:18:58;16.91;66.94
73547;SHT30;61807;48.384;-4.386;2023-04-06T10:21:28;16.85;66.88
73547;SHT30;61807;48.384;-4.386;2023-04-06T10:23:58;16.81;67.30
73547;SHT30;61807;48.384;-4.386;2023-04-06T10:26:24;16.81;67.11
73547;SHT30;61807;48.384;-4.386;2023-04-06T10:28:50;16.76;67.44
73547;SHT30;61807;48.384;-4.386;2023-04-06T10:31:27;16.62;66.91
73547;SHT30;61807;48.384;-4.386;2023-04-06T10:33:57;16.48;67.28
73547;SHT30;61807;48.384;-4.386;2023-04-06T10:36:36;16.46;67.51
73547;SHT30;61807;48.384;-4.386;2023-04-06T10:39:04;16.51;67.09
73547;SHT30;61807;48.384;-4.386;2023-04-06T10:41:41;16.55;66.93
73547;SHT30;61807;48.384;-4.386;2023-04-06T10:44:06;16.49;66.22
73547;SHT30;61807;48.384;-4.386;2023-04-06T10:46:33;16.45;66.72
73547;SHT30;61807;48.384;-4.386;2023-04-06T10:49:10;16.42;67.12
73547;SHT30;61807;48.384;-4.386;2023-04-06T10:51:38;16.43;66.69
73547;SHT30;61807;48.384;-4.386;2023-04-06T10:54:05;16.45;65.91
73547;SHT30;61807;48.384;-4.386;2023-04-06T10:56:33;16.38;65.87
73547;SHT30;61807;48.384;-4.386;2023-04-06T10:59:01;16.30;65.73
73547;SHT30;61807;48.384;-4.386;2023-04-06T11:01:27;16.28;65.90
73547;SHT30;61807;48.384;-4.386;2023-04-06T11:03:56;16.26;66.19
73547;SHT30;61807;48.384;-4.386;2023-04-06T11:06:27;16.16;65.54
73547;SHT30;61807;48.384;-4.386;2023-04-06T11:08:55;16.11;66.13
73547;SHT30;61807;48.384;-4.386;2023-04-06T11:11:22;16.12;65.93
73547;SHT30;61807;48.384;-4.386;2023-04-06T11:13:51;16.18;65.44
73547;SHT30;61807;48.384;-4.386;2023-04-06T11:19:04;16.28;64.92
73547;SHT30;61807;48.384;-4.386;2023-04-06T11:24:21;16.48;65.01
73547;SHT30;61807;48.384;-4.386;2023-04-06T11:26:57;16.60;64.92
73547;SHT30;61807;48.384;-4.386;2023-04-06T11:29:26;16.69;65.02
73547;SHT30;61807;48.384;-4.386;2023-04-06T11:32:03;16.66;64.68
73547;SHT30;61807;48.384;-4.386;2023-04-06T11:34:30;16.63;64.58
73547;SHT30;61807;48.384;-4.386;2023-04-06T11:37:02;16.48;63.85
73547;SHT30;61807;48.384;-4.386;2023-04-06T11:39:29;16.52;64.56
73547;SHT30;61807;48.384;-4.386;2023-04-06T11:41:59;16.81;64.32
73547;SHT30;61807;48.384;-4.386;2023-04-06T11:44:33;17.15;64.13
73547;SHT30;61807;48.384;-4.386;2023-04-06T11:47:01;17.32;62.37
73547;SHT30;61807;48.384;-4.386;2023-04-06T11:49:27;17.38;61.86
73547;SHT30;61807;48.384;-4.386;2023-04-06T11:51:56;17.41;62.34
73547;SHT30;61807;48.384;-4.386;2023-04-06T11:54:36;17.38;62.60
73547;SHT30;61807;48.384;-4.386;2023-04-06T11:57:07;17.28;61.61
73547;SHT30;61807;48.384;-4.386;2023-04-06T11:59:33;17.24;61.34
73547;SHT30;61807;48.384;-4.386;2023-04-06T12:01:58;17.35;61.69
73547;SHT30;61807;48.384;-4.386;2023-04-06T12:04:24;17.61;61.71
73547;SHT30;61807;48.384;-4.386;2023-04-06T12:06:49;17.78;61.58
73547;SHT30;61807;48.384;-4.386;2023-04-06T12:09:16;18.34;60.82
73547;SHT30;61807;48.384;-4.386;2023-04-06T12:11:42;19.06;59.64
73547;SHT30;61807;48.384;-4.386;2023-04-06T12:14:08;19.38;58.33
73547;SHT30;61807;48.384;-4.386;2023-04-06T12:16:34;19.82;57.14
73547;SHT30;61807;48.384;-4.386;2023-04-06T12:19:00;20.35;56.32
73547;SHT30;61807;48.384;-4.386;2023-04-06T12:21:30;20.93;55.23
73547;SHT30;61807;48.384;-4.386;2023-04-06T12:23:59;21.46;55.05
73547;SHT30;61807;48.384;-4.386;2023-04-06T12:26:26;22.04;53.60
73547;SHT30;61807;48.384;-4.386;2023-04-06T12:28:52;21.96;52.69
73547;SHT30;61807;48.384;-4.386;2023-04-06T12:31:18;21.37;53.39
73547;SHT30;61807;48.384;-4.386;2023-04-06T12:33:47;20.74;54.37
73547;SHT30;61807;48.384;-4.386;2023-04-06T12:36:17;20.16;54.92
73547;SHT30;61807;48.384;-4.386;2023-04-06T12:38:50;19.66;54.98
73547;SHT30;61807;48.384;-4.386;2023-04-06T12:41:18;19.16;55.84
73547;SHT30;61807;48.384;-4.386;2023-04-06T12:43:44;18.75;56.46
73547;SHT30;61807;48.384;-4.386;2023-04-06T12:46:10;18.67;57.03
73547;SHT30;61807;48.384;-4.386;2023-04-06T12:48:36;18.67;57.08
73547;SHT30;61807;48.384;-4.386;2023-04-06T12:51:04;18.58;57.02
73547;SHT30;61807;48.384;-4.386;2023-04-06T12:53:30;18.44;57.39
73547;SHT30;61807;48.384;-4.386;2023-04-06T12:55:56;18.24;57.26
73547;SHT30;61807;48.384;-4.386;2023-04-06T12:58:22;17.99;57.62
73547;SHT30;61807;48.384;-4.386;2023-04-06T13:00:49;17.72;58.05
73547;SHT30;61807;48.384;-4.386;2023-04-06T13:03:19;17.70;58.30
73547;SHT30;61807;48.384;-4.386;2023-04-06T13:05:46;18.43;56.96
73547;SHT30;61807;48.384;-4.386;2023-04-06T13:08:12;19.41;55.67
73547;SHT30;61807;48.384;-4.386;2023-04-06T13:10:38;20.29;54.59
73547;SHT30;61807;48.384;-4.386;2023-04-06T13:13:03;20.53;53.47
73547;SHT30;61807;48.384;-4.386;2023-04-06T13:15:29;20.35;52.97
73547;SHT30;61807;48.384;-4.386;2023-04-06T13:17:55;20.12;52.76
73547;SHT30;61807;48.384;-4.386;2023-04-06T13:20:20;19.87;52.89
73547;SHT30;61807;48.384;-4.386;2023-04-06T13:22:45;19.71;52.73
73547;SHT30;61807;48.384;-4.386;2023-04-06T13:25:11;19.75;52.43
73547;SHT30;61807;48.384;-4.386;2023-04-06T13:27:36;19.63;52.48
73547;SHT30;61807;48.384;-4.386;2023-04-06T13:30:03;19.51;53.39
73547;SHT30;61807;48.384;-4.386;2023-04-06T13:32:29;19.26;53.49
73547;SHT30;61807;48.384;-4.386;2023-04-06T13:34:55;18.99;54.17
73547;SHT30;61807;48.384;-4.386;2023-04-06T13:37:20;18.81;53.63
73547;SHT30;61807;48.384;-4.386;2023-04-06T13:39:46;18.88;54.43
73547;SHT30;61807;48.384;-4.386;2023-04-06T13:42:11;19.15;53.51
73547;SHT30;61807;48.384;-4.386;2023-04-06T13:44:37;19.47;53.43
73547;SHT30;61807;48.384;-4.386;2023-04-06T13:47:02;19.57;52.42
73547;SHT30;61807;48.384;-4.386;2023-04-06T13:49:28;19.38;52.00
73547;SHT30;61807;48.384;-4.386;2023-04-06T13:51:53;19.30;51.95
73547;SHT30;61807;48.384;-4.386;2023-04-06T13:54:19;19.20;52.51
73547;SHT30;61807;48.384;-4.386;2023-04-06T13:56:45;19.02;52.24
73547;SHT30;61807;48.384;-4.386;2023-04-06T13:59:10;18.88;53.13
73547;SHT30;61807;48.384;-4.386;2023-04-06T14:01:36;18.99;53.04
73547;SHT30;61807;48.384;-4.386;2023-04-06T14:04:02;19.17;52.45
73547;SHT30;61807;48.384;-4.386;2023-04-06T14:06:27;19.10;52.47
73547;SHT30;61807;48.384;-4.386;2023-04-06T14:08:53;19.17;52.83
73547;SHT30;61807;48.384;-4.386;2023-04-06T14:11:18;19.56;52.13
73547;SHT30;61807;48.384;-4.386;2023-04-06T14:13:43;19.60;51.25
73547;SHT30;61807;48.384;-4.386;2023-04-06T14:16:09;19.34;51.79
73547;SHT30;61807;48.384;-4.386;2023-04-06T14:18:36;18.99;52.74
73547;SHT30;61807;48.384;-4.386;2023-04-06T14:21:01;18.98;52.77
73547;SHT30;61807;48.384;-4.386;2023-04-06T14:23:28;19.02;53.13
73547;SHT30;61807;48.384;-4.386;2023-04-06T14:28:28;19.29;52.52
73547;SHT30;61807;48.384;-4.386;2023-04-06T14:30:54;19.02;52.61
73547;SHT30;61807;48.384;-4.386;2023-04-06T14:33:19;18.58;53.20
73547;SHT30;61807;48.384;-4.386;2023-04-06T14:35:45;18.10;54.23
73547;SHT30;61807;48.384;-4.386;2023-04-06T14:38:10;17.69;54.89
73547;SHT30;61807;48.384;-4.386;2023-04-06T14:40:35;17.43;55.67
73547;SHT30;61807;48.384;-4.386;2023-04-06T14:43:02;17.52;55.78
73547;SHT30;61807;48.384;-4.386;2023-04-06T14:45:29;18.00;55.33
73547;SHT30;61807;48.384;-4.386;2023-04-06T14:47:55;18.55;54.20
73547;SHT30;61807;48.384;-4.386;2023-04-06T14:50:20;18.99;53.48
73547;SHT30;61807;48.384;-4.386;2023-04-06T14:52:45;19.31;52.52
73547;SHT30;61807;48.384;-4.386;2023-04-06T14:55:12;19.36;52.53
73547;SHT30;61807;48.384;-4.386;2023-04-06T14:57:37;19.31;52.71
73547;SHT30;61807;48.384;-4.386;2023-04-06T15:00:03;19.20;53.11
73547;SHT30;61807;48.384;-4.386;2023-04-06T15:02:28;18.96;53.06
73547;SHT30;61807;48.384;-4.386;2023-04-06T15:04:54;18.78;53.66
73547;SHT30;61807;48.384;-4.386;2023-04-06T15:07:19;18.65;53.96
73547;SHT30;61807;48.384;-4.386;2023-04-06T15:09:45;18.51;53.55
73547;SHT30;61807;48.384;-4.386;2023-04-06T15:12:10;18.37;54.08
73547;SHT30;61807;48.384;-4.386;2023-04-06T15:14:35;18.10;53.83
73547;SHT30;61807;48.384;-4.386;2023-04-06T15:17:01;17.89;54.31
73547;SHT30;61807;48.384;-4.386;2023-04-06T15:19:26;17.75;54.59